Time;durP1;ratioP1;P1;durP2;ratioP2;P2;SDS_P1;SDS_P2;PMS_P1;PMS_P2;Temp;Humidity;BMP_temperature;BMP_pressure;BME280_temperature;BME280_humidity;BME280_pressure;Samples;Min_cycle;Max_cycle;Signal;HPM_P1;HPM_P2
2023/11/10 00:01:04;;;;;;;4.38;3.13;;;5.20;99.90;;;;;;4917544;29;20020;-78
2023/11/10 00:03:30;;;;;;;4.78;3.25;;;5.30;99.90;;;;;;4918828;29;20057;-78
2023/11/10 00:05:56;;;;;;;7.75;3.47;;;5.40;99.90;;;;;;4917259;29;20032;-78
2023/11/10 00:08:21;;;;;;;6.75;3.17;;;5.20;99.90;;;;;;4917084;29;20031;-77
2023/11/10 00:10:47;;;;;;;6.65;3.28;;;5.40;99.90;;;;;;4917339;29;20028;-79
2023/11/10 00:13:15;;;;;;;6.50;3.10;;;5.30;99.90;;;;;;4916992;29;20031;-77
2023/11/10 00:15:41;;;;;;;4.25;3.17;;;5.30;99.90;;;;;;4916732;29;20032;-78
2023/11/10 00:18:07;;;;;;;4.43;2.90;;;5.30;99.90;;;;;;4918181;29;20020;-78
2023/11/10 00:20:36;;;;;;;4.60;3.30;;;5.40;99.90;;;;;;4917261;29;20028;-77
2023/11/10 00:23:03;;;;;;;6.57;2.88;;;5.30;99.90;;;;;;4916944;29;20024;-77
2023/11/10 00:25:28;;;;;;;9.65;3.28;;;5.40;99.90;;;;;;4917900;29;20028;-77
2023/11/10 00:27:54;;;;;;;3.45;3.10;;;5.40;99.90;;;;;;4916991;29;20080;-77
2023/11/10 00:30:20;;;;;;;5.70;3.28;;;5.40;99.90;;;;;;4917975;29;20032;-77
2023/11/10 00:32:46;;;;;;;5.53;2.65;;;5.40;99.90;;;;;;4918331;29;20035;-78
2023/11/10 00:35:11;;;;;;;6.65;3.53;;;5.50;99.90;;;;;;4916220;29;20034;-77
2023/11/10 00:37:37;;;;;;;4.40;2.65;;;5.50;99.90;;;;;;4917570;29;20024;-77
2023/11/10 00:40:03;;;;;;;3.47;2.78;;;5.40;99.90;;;;;;4916701;29;20539;-77
2023/11/10 00:42:29;;;;;;;5.88;3.33;;;5.50;99.90;;;;;;4917897;29;20024;-77
2023/11/10 00:44:56;;;;;;;5.05;3.20;;;6.30;99.90;;;;;;4916393;29;20405;-78
2023/11/10 00:47:22;;;;;;;4.88;2.80;;;5.50;99.90;;;;;;4916638;29;20050;-78
2023/11/10 00:49:47;;;;;;;5.10;2.78;;;5.80;99.90;;;;;;4916930;29;20172;-79
2023/11/10 00:52:13;;;;;;;5.82;2.92;;;5.80;99.90;;;;;;4916424;29;20032;-77
2023/11/10 00:54:39;;;;;;;6.97;3.97;;;5.50;99.90;;;;;;4915951;29;20028;-78
2023/11/10 00:57:04;;;;;;;5.20;2.63;;;5.80;99.90;;;;;;4916600;29;20118;-78
2023/11/10 00:59:30;;;;;;;3.28;2.83;;;5.50;99.90;;;;;;4917709;29;20020;-78
2023/11/10 01:01:55;;;;;;;8.32;3.17;;;5.60;99.90;;;;;;4917001;29;20021;-79
2023/11/10 01:04:21;;;;;;;3.30;2.90;;;5.70;99.90;;;;;;4917356;29;20445;-78
2023/11/10 01:06:47;;;;;;;5.13;3.17;;;5.80;99.90;;;;;;4916426;29;20119;-78
2023/11/10 01:09:12;;;;;;;5.28;2.88;;;5.60;99.90;;;;;;4916595;29;20055;-77
2023/11/10 01:11:38;;;;;;;7.45;2.95;;;5.80;99.90;;;;;;4916078;29;20036;-78
2023/11/10 01:14:04;;;;;;;3.78;2.80;;;5.70;99.90;;;;;;4915901;29;20032;-78
2023/11/10 01:16:30;;;;;;;8.02;3.17;;;5.70;99.90;;;;;;4917364;29;20032;-79
2023/11/10 01:18:56;;;;;;;6.30;3.67;;;5.70;99.90;;;;;;4915853;29;20024;-78
2023/11/10 01:21:21;;;;;;;4.78;2.83;;;5.70;99.90;;;;;;4916352;29;20031;-78
2023/11/10 01:23:48;;;;;;;3.80;2.83;;;5.70;99.90;;;;;;4915691;29;20123;-78
2023/11/10 01:26:15;;;;;;;4.85;3.30;;;5.70;99.90;;;;;;4915769;29;20088;-78
2023/11/10 01:28:41;;;;;;;4.95;3.10;;;5.70;99.90;;;;;;4917100;29;20489;-78
2023/11/10 01:31:06;;;;;;;3.15;2.42;;;5.70;99.90;;;;;;4915874;29;20115;-78
2023/11/10 01:33:32;;;;;;;3.90;2.60;;;6.00;99.90;;;;;;4920377;29;20111;-78
2023/11/10 01:35:57;;;;;;;3.45;2.88;;;5.80;99.90;;;;;;4919515;29;20114;-78
2023/11/10 01:38:23;;;;;;;4.28;3.05;;;5.80;99.90;;;;;;4920728;29;20047;-78
2023/11/10 01:40:50;;;;;;;5.88;3.08;;;5.80;99.90;;;;;;4919513;29;20036;-78
2023/11/10 01:43:16;;;;;;;3.60;2.65;;;5.70;99.90;;;;;;4919664;29;20119;-78
2023/11/10 01:45:42;;;;;;;3.88;2.83;;;5.90;99.90;;;;;;4920524;29;20114;-78
2023/11/10 01:48:10;;;;;;;2.45;1.92;;;6.00;99.90;;;;;;4919730;29;20028;-78
2023/11/10 01:50:38;;;;;;;6.50;3.53;;;6.00;99.90;;;;;;4919693;29;20032;-78
2023/11/10 01:53:06;;;;;;;6.28;2.28;;;6.10;99.90;;;;;;4919739;29;20084;-77
2023/11/10 01:55:33;;;;;;;3.72;2.70;;;5.80;99.90;;;;;;4920674;29;20024;-78
2023/11/10 01:57:59;;;;;;;6.32;2.78;;;6.00;99.90;;;;;;4919535;29;20111;-78
2023/11/10 02:00:30;;;;;;;3.65;2.90;;;5.70;99.90;;;;;;4919338;29;20032;-78
2023/11/10 02:03:03;;;;;;;7.07;2.80;;;5.90;99.90;;;;;;4920724;29;20572;-78
2023/11/10 02:05:30;;;;;;;6.10;3.20;;;5.70;99.90;;;;;;4920343;29;20020;-78
2023/11/10 02:07:56;;;;;;;5.05;3.05;;;5.70;99.90;;;;;;4920657;29;20523;-78
2023/11/10 02:10:22;;;;;;;2.70;2.33;;;5.70;99.90;;;;;;4919206;29;20036;-77
2023/11/10 02:12:55;;;;;;;5.18;2.25;;;5.70;99.90;;;;;;4920854;29;20036;-78
2023/11/10 02:15:23;;;;;;;5.38;2.65;;;5.70;99.90;;;;;;4918681;29;20032;-78
2023/11/10 02:17:49;;;;;;;5.28;2.55;;;5.70;99.90;;;;;;4920697;29;20028;-78
2023/11/10 02:20:14;;;;;;;5.38;2.72;;;5.80;99.90;;;;;;4919472;29;20032;-78
2023/11/10 02:22:47;;;;;;;6.25;2.67;;;5.80;99.90;;;;;;4919272;29;20020;-77
2023/11/10 02:25:14;;;;;;;6.55;3.08;;;5.80;99.90;;;;;;4919243;29;20028;-78
2023/11/10 02:27:40;;;;;;;4.78;2.55;;;5.90;99.90;;;;;;4903598;29;20028;-78
2023/11/10 02:30:07;;;;;;;3.30;3.00;;;5.90;99.90;;;;;;4919190;29;20540;-78
2023/11/10 02:32:33;;;;;;;3.83;2.85;;;5.80;99.90;;;;;;4919255;29;20032;-78
2023/11/10 02:34:59;;;;;;;3.97;2.83;;;5.80;99.90;;;;;;4920378;29;20098;-77
2023/11/10 02:37:24;;;;;;;4.43;2.85;;;5.80;99.90;;;;;;4920295;29;20055;-78
2023/11/10 02:39:50;;;;;;;9.98;2.78;;;5.80;99.90;;;;;;4920225;29;20528;-78
2023/11/10 02:42:15;;;;;;;5.97;3.13;;;5.80;99.90;;;;;;4919181;29;20075;-78
2023/11/10 02:44:41;;;;;;;3.75;2.92;;;5.80;99.90;;;;;;4918965;29;20386;-80
2023/11/10 02:47:07;;;;;;;5.50;3.30;;;5.80;99.90;;;;;;4918852;29;20126;-78
2023/11/10 02:49:32;;;;;;;4.00;2.33;;;5.90;99.90;;;;;;4918869;29;20039;-78
2023/11/10 02:51:58;;;;;;;3.35;2.45;;;5.80;99.90;;;;;;4918885;29;20048;-78
2023/11/10 02:54:23;;;;;;;5.32;3.05;;;5.80;99.90;;;;;;4918563;29;20031;-80
2023/11/10 02:56:49;;;;;;;4.45;2.55;;;6.10;99.90;;;;;;4918924;29;20025;-78
2023/11/10 02:59:15;;;;;;;4.38;2.75;;;5.80;99.90;;;;;;4918685;29;20515;-78
2023/11/10 03:01:42;;;;;;;4.28;2.95;;;5.80;99.90;;;;;;4918669;29;20400;-78
2023/11/10 03:04:07;;;;;;;4.63;3.40;;;6.00;99.90;;;;;;4918329;29;20059;-78
2023/11/10 03:06:33;;;;;;;13.05;3.10;;;6.10;99.90;;;;;;4918575;29;20619;-78
2023/11/10 03:08:58;;;;;;;4.45;3.00;;;5.90;99.90;;;;;;4918715;29;20038;-77
2023/11/10 03:11:24;;;;;;;3.88;2.55;;;6.00;99.90;;;;;;4918549;29;20028;-78
2023/11/10 03:13:54;;;;;;;5.07;2.78;;;5.80;99.90;;;;;;4917775;29;20028;-80
2023/11/10 03:16:21;;;;;;;5.50;2.95;;;5.90;99.90;;;;;;4918182;29;20076;-78
2023/11/10 03:18:46;;;;;;;5.78;3.08;;;6.00;99.90;;;;;;4918448;29;20496;-78
2023/11/10 03:21:17;;;;;;;3.17;2.28;;;5.90;99.90;;;;;;4918323;29;20028;-78
2023/11/10 03:23:43;;;;;;;5.28;2.97;;;5.90;99.90;;;;;;4918289;29;20032;-77
2023/11/10 03:26:08;;;;;;;3.50;2.47;;;5.90;99.90;;;;;;4918220;29;20031;-78
2023/11/10 03:28:34;;;;;;;3.13;2.17;;;5.90;99.90;;;;;;4919535;29;20028;-78
2023/11/10 03:31:00;;;;;;;3.55;2.30;;;6.20;99.90;;;;;;4919444;29;20032;-77
2023/11/10 03:33:26;;;;;;;8.00;2.58;;;6.10;99.90;;;;;;4919455;29;20017;-78
2023/11/10 03:35:52;;;;;;;11.73;4.45;;;5.90;99.90;;;;;;4919031;29;20060;-78
2023/11/10 03:38:19;;;;;;;11.30;5.15;;;6.00;99.90;;;;;;4918313;29;20052;-77
2023/11/10 03:40:45;;;;;;;4.18;2.83;;;6.40;99.90;;;;;;4917954;29;20509;-78
2023/11/10 03:43:10;;;;;;;3.65;2.40;;;6.10;99.90;;;;;;4917680;29;20034;-78
2023/11/10 03:45:36;;;;;;;3.72;2.30;;;6.10;99.90;;;;;;4917759;29;20047;-78
2023/11/10 03:48:01;;;;;;;4.78;2.95;;;6.00;99.90;;;;;;4917656;29;20420;-78
2023/11/10 03:50:27;;;;;;;6.30;2.97;;;6.00;99.90;;;;;;4919501;29;20028;-78
2023/11/10 03:52:52;;;;;;;3.03;2.20;;;6.00;99.90;;;;;;4919310;29;20028;-78
2023/11/10 03:55:18;;;;;;;2.80;2.40;;;6.30;99.90;;;;;;4919056;29;20032;-79
2023/11/10 03:57:45;;;;;;;6.53;3.28;;;6.30;99.90;;;;;;4919476;29;20416;-78
2023/11/10 04:00:13;;;;;;;4.82;2.55;;;6.00;99.90;;;;;;4917613;29;20028;-77
2023/11/10 04:02:39;;;;;;;4.18;2.85;;;6.00;99.90;;;;;;4918991;29;20127;-80
2023/11/10 04:05:05;;;;;;;4.35;2.83;;;6.20;99.90;;;;;;4917860;29;20062;-78
2023/11/10 04:07:30;;;;;;;8.52;2.28;;;6.00;99.90;;;;;;4917901;29;20552;-79
2023/11/10 04:09:56;;;;;;;2.90;2.50;;;6.00;99.90;;;;;;4917495;29;20024;-77
2023/11/10 04:12:22;;;;;;;3.75;2.53;;;6.10;99.90;;;;;;4918138;29;20028;-78
2023/11/10 04:14:48;;;;;;;7.65;3.00;;;6.00;99.90;;;;;;4917175;29;20035;-79
2023/11/10 04:17:14;;;;;;;4.53;3.00;;;6.20;99.90;;;;;;4917469;29;20024;-77
2023/11/10 04:19:39;;;;;;;5.45;3.45;;;6.10;99.90;;;;;;4917474;29;20040;-78
2023/11/10 04:22:06;;;;;;;7.35;3.35;;;6.10;99.90;;;;;;4916573;29;20048;-78
2023/11/10 04:24:33;;;;;;;8.52;3.63;;;6.00;99.90;;;;;;4918570;29;20488;-78
2023/11/10 04:26:59;;;;;;;7.40;3.67;;;6.50;99.90;;;;;;4917263;29;20040;-78
2023/11/10 04:29:25;;;;;;;4.50;2.97;;;6.10;99.90;;;;;;4917243;29;20111;-78
2023/11/10 04:31:50;;;;;;;10.10;3.55;;;6.10;99.90;;;;;;4917016;29;20516;-78
2023/11/10 04:34:17;;;;;;;9.10;4.88;;;6.30;99.90;;;;;;4918010;29;20146;-78
2023/11/10 04:36:45;;;;;;;11.13;5.85;;;6.30;99.90;;;;;;4918321;29;20028;-78
2023/11/10 04:39:11;;;;;;;11.25;7.38;;;6.20;99.90;;;;;;4917876;29;20084;-78
2023/11/10 04:41:38;;;;;;;8.55;5.03;;;6.40;99.90;;;;;;4919079;29;20020;-78
2023/11/10 04:44:08;;;;;;;26.80;12.82;;;6.20;99.90;;;;;;4916208;29;20028;-77
2023/11/10 04:46:39;;;;;;;8.13;5.53;;;6.10;99.90;;;;;;4916199;29;20059;-78
2023/11/10 04:49:05;;;;;;;9.90;6.18;;;6.10;99.90;;;;;;4918208;29;20028;-77
2023/11/10 04:51:31;;;;;;;8.38;5.18;;;6.20;99.90;;;;;;4917277;29;20045;-77
2023/11/10 04:53:57;;;;;;;7.05;4.55;;;6.20;99.90;;;;;;4916089;29;20449;-78
2023/11/10 04:56:22;;;;;;;11.75;4.07;;;6.20;99.90;;;;;;4916202;29;20025;-78
2023/11/10 04:58:48;;;;;;;7.50;3.70;;;6.20;99.90;;;;;;4917996;29;20028;-78
2023/11/10 05:01:13;;;;;;;8.68;3.72;;;6.20;99.90;;;;;;4916955;29;20024;-80
2023/11/10 05:03:41;;;;;;;5.38;4.75;;;6.30;99.90;;;;;;4919462;29;20029;-77
2023/11/10 05:06:08;;;;;;;5.10;3.65;;;6.20;99.90;;;;;;4919453;29;20036;-78
2023/11/10 05:08:33;;;;;;;8.13;3.70;;;6.20;99.90;;;;;;4918865;29;20052;-78
2023/11/10 05:10:59;;;;;;;5.47;3.78;;;6.20;99.90;;;;;;4919796;29;20032;-78
2023/11/10 05:13:24;;;;;;;5.70;3.33;;;6.20;99.90;;;;;;4919067;29;20028;-78
2023/11/10 05:15:50;;;;;;;3.92;3.47;;;6.30;99.90;;;;;;4918998;29;20745;-79
2023/11/10 05:18:16;;;;;;;7.35;4.82;;;6.30;99.90;;;;;;4920255;29;20024;-79
2023/11/10 05:20:41;;;;;;;6.10;4.25;;;6.30;99.90;;;;;;4911476;29;20031;-79
2023/11/10 05:23:07;;;;;;;8.27;4.72;;;6.60;99.90;;;;;;4930091;29;20028;-83
2023/11/10 05:25:32;;;;;;;9.18;4.75;;;6.30;99.90;;;;;;4929767;29;20036;-82
2023/11/10 05:27:58;;;;;;;6.35;3.90;;;6.40;99.90;;;;;;4928451;29;20111;-81
2023/11/10 05:30:24;;;;;;;5.97;4.32;;;6.50;99.90;;;;;;4925607;29;20461;-78
2023/11/10 05:32:50;;;;;;;5.30;3.65;;;6.30;99.90;;;;;;4924866;29;20028;-79
2023/11/10 05:35:16;;;;;;;5.60;4.15;;;6.30;99.90;;;;;;4924309;29;20069;-80
2023/11/10 05:37:41;;;;;;;5.88;4.65;;;6.40;99.90;;;;;;4925536;29;20031;-78
2023/11/10 05:40:10;;;;;;;6.03;4.22;;;6.60;99.90;;;;;;4925416;29;20029;-78
2023/11/10 05:42:36;;;;;;;6.72;3.97;;;6.40;99.90;;;;;;4925638;29;20445;-81
2023/11/10 05:45:02;;;;;;;6.57;3.88;;;6.40;99.90;;;;;;4924824;29;20036;-78
2023/11/10 05:47:28;;;;;;;8.18;4.30;;;6.40;99.90;;;;;;4924090;29;20096;-79
2023/11/10 05:49:54;;;;;;;5.05;3.80;;;6.40;99.90;;;;;;4923893;29;20028;-79
2023/11/10 05:52:19;;;;;;;5.28;4.22;;;6.40;99.90;;;;;;4923863;29;20092;-79
2023/11/10 05:54:45;;;;;;;7.43;4.03;;;6.50;99.90;;;;;;4925256;29;20043;-80
2023/11/10 05:57:13;;;;;;;7.38;3.80;;;6.40;99.90;;;;;;4929590;29;20091;-82
2023/11/10 05:59:38;;;;;;;5.68;3.80;;;6.50;99.90;;;;;;4928409;29;20032;-82
2023/11/10 06:02:04;;;;;;;5.22;3.47;;;6.50;99.90;;;;;;4931478;29;20029;-80
2023/11/10 06:04:30;;;;;;;6.28;3.63;;;7.30;99.90;;;;;;4897677;29;20032;-81
2023/11/10 06:06:55;;;;;;;4.75;3.58;;;7.10;99.90;;;;;;4914532;29;20032;-78
2023/11/10 06:09:22;;;;;;;4.85;3.88;;;7.00;99.90;;;;;;4896984;29;20036;-81
2023/11/10 06:11:50;;;;;;;4.93;3.60;;;6.80;99.90;;;;;;4912596;29;20024;-81
2023/11/10 06:14:17;;;;;;;4.95;3.25;;;6.90;99.90;;;;;;4914503;29;20041;-82
2023/11/10 06:16:42;;;;;;;5.38;3.58;;;6.70;99.90;;;;;;4903844;29;20223;-83
2023/11/10 06:19:08;;;;;;;7.07;4.00;;;6.70;99.90;;;;;;4924397;29;20040;-81
2023/11/10 06:21:34;;;;;;;6.15;3.95;;;6.80;99.90;;;;;;4909238;29;20051;-80
2023/11/10 06:24:00;;;;;;;6.00;3.85;;;6.60;99.90;;;;;;4924607;29;20017;-83
2023/11/10 06:26:26;;;;;;;11.02;4.65;;;6.70;99.90;;;;;;4940571;29;20032;-85
2023/11/10 06:28:52;;;;;;;4.93;3.40;;;6.60;99.90;;;;;;4909103;29;20017;-85
2023/11/10 06:31:20;;;;;;;4.65;3.05;;;6.60;99.90;;;;;;4925278;29;20017;-84
2023/11/10 06:33:50;;;;;;;4.93;3.58;;;6.60;99.90;;;;;;4908638;29;20024;-84
2023/11/10 06:36:16;;;;;;;6.22;3.45;;;6.60;99.90;;;;;;4908858;29;20024;-84
2023/11/10 06:38:43;;;;;;;4.72;2.80;;;6.70;99.90;;;;;;4908866;29;20041;-82
2023/11/10 06:41:10;;;;;;;5.43;3.22;;;6.70;99.90;;;;;;4908678;29;20024;-82
2023/11/10 06:43:37;;;;;;;5.68;3.80;;;7.00;99.90;;;;;;4924838;29;20009;-83
2023/11/10 06:46:04;;;;;;;4.47;3.50;;;6.70;99.90;;;;;;4939816;29;20041;-82
2023/11/10 06:48:29;;;;;;;5.88;4.10;;;6.70;99.90;;;;;;4924892;29;20017;-82
2023/11/10 06:50:55;;;;;;;4.25;3.85;;;6.90;99.90;;;;;;4924834;29;20027;-83
2023/11/10 06:53:21;;;;;;;3.47;3.05;;;6.70;99.90;;;;;;4891260;29;20032;-77
2023/11/10 06:55:46;;;;;;;3.97;3.50;;;6.70;99.90;;;;;;4884291;29;20036;-78
2023/11/10 06:58:12;;;;;;;4.38;3.60;;;6.80;99.90;;;;;;4884832;29;20434;-77
2023/11/10 07:00:38;;;;;;;10.68;3.85;;;6.80;99.90;;;;;;4885258;29;20032;-78
2023/11/10 07:03:11;;;;;;;5.82;3.63;;;6.80;99.90;;;;;;4901377;29;20024;-77
2023/11/10 07:05:38;;;;;;;4.53;3.15;;;6.90;99.90;;;;;;4901236;29;20024;-77
2023/11/10 07:08:09;;;;;;;4.10;3.08;;;6.90;99.90;;;;;;4901643;29;20029;-76
2023/11/10 07:10:35;;;;;;;7.68;3.72;;;6.90;99.90;;;;;;4884787;29;20032;-78
2023/11/10 07:13:01;;;;;;;7.97;3.33;;;6.90;99.90;;;;;;4884713;29;20028;-77
2023/11/10 07:15:26;;;;;;;4.30;3.58;;;7.00;99.90;;;;;;4899633;29;20031;-77
2023/11/10 07:17:52;;;;;;;3.83;3.35;;;6.90;99.90;;;;;;4883939;29;20088;-77
2023/11/10 07:20:18;;;;;;;6.50;3.10;;;6.90;99.90;;;;;;4900689;29;20043;-78
2023/11/10 07:22:43;;;;;;;3.20;2.90;;;7.00;99.90;;;;;;4900876;29;20025;-77
2023/11/10 07:25:09;;;;;;;5.82;2.65;;;7.00;99.90;;;;;;4900270;29;20036;-77
2023/11/10 07:27:35;;;;;;;5.43;2.80;;;7.00;99.90;;;;;;4885833;29;20029;-77
2023/11/10 07:30:01;;;;;;;10.50;3.67;;;7.00;99.90;;;;;;4918632;29;20108;-77
2023/11/10 07:32:29;;;;;;;6.20;3.25;;;7.10;99.90;;;;;;4918225;29;20032;-77
2023/11/10 07:34:55;;;;;;;4.18;3.13;;;7.00;99.90;;;;;;4918034;29;20055;-78
2023/11/10 07:37:21;;;;;;;3.47;2.78;;;7.00;99.90;;;;;;4919057;29;20017;-80
2023/11/10 07:39:46;;;;;;;8.85;3.92;;;7.00;99.90;;;;;;4924961;29;20536;-78
2023/11/10 07:42:13;;;;;;;6.07;4.28;;;7.00;99.90;;;;;;4918662;29;20024;-78
2023/11/10 07:44:40;;;;;;;4.82;3.63;;;7.00;99.90;;;;;;4917161;29;20104;-77
2023/11/10 07:47:06;;;;;;;4.93;3.30;;;7.00;99.90;;;;;;4919216;29;20020;-77
2023/11/10 07:49:32;;;;;;;5.53;3.10;;;7.00;99.90;;;;;;4918066;29;20028;-77
2023/11/10 07:51:58;;;;;;;5.60;3.60;;;7.10;99.90;;;;;;4917574;29;20048;-77
2023/11/10 07:54:24;;;;;;;4.85;3.30;;;7.10;99.90;;;;;;4918279;29;20024;-77
2023/11/10 07:56:50;;;;;;;4.47;3.22;;;7.20;99.90;;;;;;4917837;29;20140;-77
2023/11/10 07:59:16;;;;;;;6.25;4.50;;;7.20;99.90;;;;;;4919387;29;20035;-78
2023/11/10 08:01:43;;;;;;;6.80;4.65;;;8.90;99.90;;;;;;4919424;29;20107;-76
2023/11/10 08:04:11;;;;;;;8.88;5.22;;;9.70;99.90;;;;;;4917933;29;20040;-77
2023/11/10 08:06:38;;;;;;;7.38;5.15;;;10.40;99.90;;;;;;4919240;29;20032;-77
2023/11/10 08:09:04;;;;;;;4.35;3.88;;;10.80;99.90;;;;;;4917710;29;20024;-78
2023/11/10 08:11:30;;;;;;;3.88;3.25;;;10.70;99.90;;;;;;4919630;29;20024;-76
2023/11/10 08:13:56;;;;;;;8.18;4.72;;;10.60;99.90;;;;;;4917842;29;20024;-78
2023/11/10 08:16:22;;;;;;;6.25;4.22;;;10.90;99.90;;;;;;4918151;29;20595;-76
2023/11/10 08:18:49;;;;;;;4.57;3.67;;;10.60;99.90;;;;;;4920020;29;20025;-76
2023/11/10 08:21:19;;;;;;;3.97;3.35;;;10.60;99.90;;;;;;4920181;29;20029;-80
2023/11/10 08:23:45;;;;;;;2.90;2.65;;;10.20;99.90;;;;;;4920792;29;20032;-81
2023/11/10 08:26:10;;;;;;;6.38;3.20;;;9.60;99.90;;;;;;4919290;29;20110;-75
2023/11/10 08:28:36;;;;;;;6.13;2.45;;;9.10;99.90;;;;;;4918584;29;20035;-75
2023/11/10 08:31:02;;;;;;;4.13;3.17;;;8.60;99.90;;;;;;4917737;29;20032;-76
2023/11/10 08:33:28;;;;;;;5.50;2.75;;;8.40;99.90;;;;;;4918202;29;20020;-75
2023/11/10 08:35:53;;;;;;;6.07;2.90;;;8.30;99.90;;;;;;4916176;29;20119;-76
2023/11/10 08:38:19;;;;;;;3.90;3.38;;;8.20;99.90;;;;;;4916975;29;20040;-76
2023/11/10 08:40:45;;;;;;;5.60;2.95;;;8.10;99.90;;;;;;4916568;29;20024;-76
2023/11/10 08:43:11;;;;;;;3.63;3.30;;;8.00;99.90;;;;;;4916689;29;20024;-75
2023/11/10 08:45:37;;;;;;;6.38;3.40;;;7.90;99.90;;;;;;4916472;29;20043;-75
2023/11/10 08:48:04;;;;;;;6.97;4.00;;;7.90;99.90;;;;;;4916077;29;20028;-77
2023/11/10 08:50:30;;;;;;;5.13;3.13;;;7.80;99.90;;;;;;4916022;29;20149;-76
2023/11/10 08:52:56;;;;;;;8.82;3.58;;;7.90;99.90;;;;;;4915992;29;20044;-75
2023/11/10 08:55:22;;;;;;;6.40;3.55;;;8.00;99.90;;;;;;4915821;29;20036;-76
2023/11/10 08:57:49;;;;;;;8.68;4.15;;;8.00;99.90;;;;;;4916133;29;20024;-77
2023/11/10 09:00:17;;;;;;;7.50;4.88;;;8.10;99.90;;;;;;4915835;29;20028;-76
2023/11/10 09:02:44;;;;;;;10.93;5.47;;;8.00;99.90;;;;;;4915782;29;20507;-76
2023/11/10 09:05:10;;;;;;;5.15;4.18;;;7.90;99.90;;;;;;4915828;29;20115;-76
2023/11/10 09:07:37;;;;;;;6.75;4.05;;;7.90;99.90;;;;;;4916879;29;20378;-76
2023/11/10 09:10:04;;;;;;;5.10;4.13;;;7.90;99.90;;;;;;4917614;29;20024;-76
2023/11/10 09:12:32;;;;;;;7.30;5.93;;;7.90;99.90;;;;;;4916637;29;20122;-75
2023/11/10 09:14:58;;;;;;;12.38;6.05;;;7.90;99.90;;;;;;4917394;29;20039;-75
2023/11/10 09:17:23;;;;;;;10.82;6.90;;;7.90;99.90;;;;;;4915639;29;20024;-77
2023/11/10 09:19:49;;;;;;;11.38;5.63;;;8.00;99.90;;;;;;4916514;29;20033;-76
2023/11/10 09:22:15;;;;;;;7.22;5.28;;;8.00;99.90;;;;;;4917703;29;20028;-78
2023/11/10 09:24:41;;;;;;;8.27;5.53;;;8.00;99.90;;;;;;4916570;29;20088;-77
2023/11/10 09:27:07;;;;;;;6.95;5.07;;;8.00;99.90;;;;;;4924805;29;20082;-75
2023/11/10 09:29:33;;;;;;;5.70;4.10;;;8.00;99.90;;;;;;4935195;29;20032;-75
2023/11/10 09:31:59;;;;;;;5.03;4.35;;;8.00;99.90;;;;;;4936374;29;20046;-76
2023/11/10 09:34:25;;;;;;;4.60;3.45;;;8.00;99.90;;;;;;4936254;29;20639;-76
2023/11/10 09:36:51;;;;;;;6.72;4.53;;;8.10;99.90;;;;;;4934377;29;20024;-76
2023/11/10 09:39:17;;;;;;;6.32;4.03;;;8.10;99.90;;;;;;4934803;29;20027;-75
2023/11/10 09:41:47;;;;;;;8.15;3.67;;;8.10;99.90;;;;;;4935806;29;20024;-75
2023/11/10 09:44:14;;;;;;;8.88;4.90;;;8.10;99.90;;;;;;4936431;29;20047;-75
2023/11/10 09:46:43;;;;;;;6.07;3.65;;;8.10;99.90;;;;;;4936133;29;20031;-77
2023/11/10 09:49:10;;;;;;;5.28;3.30;;;8.10;99.90;;;;;;4936353;29;20032;-77
2023/11/10 09:51:42;;;;;;;4.70;3.28;;;8.10;99.90;;;;;;4934912;29;20518;-76
2023/11/10 09:54:08;;;;;;;5.72;3.55;;;8.20;99.90;;;;;;4938699;29;20031;-77
2023/11/10 09:56:38;;;;;;;7.68;3.30;;;8.20;99.90;;;;;;4939893;29;20106;-75
2023/11/10 09:59:06;;;;;;;6.38;3.70;;;8.20;99.90;;;;;;4940315;29;20016;-76
2023/11/10 10:01:32;;;;;;;4.28;3.88;;;8.30;99.90;;;;;;4940481;29;20075;-75
2023/11/10 10:03:57;;;;;;;4.00;3.30;;;8.30;99.90;;;;;;4940262;29;20036;-77
2023/11/10 10:06:25;;;;;;;6.95;3.72;;;8.20;99.90;;;;;;4940129;29;20023;-76
2023/11/10 10:08:54;;;;;;;5.82;4.00;;;8.30;99.90;;;;;;4939824;29;20051;-78
2023/11/10 10:11:21;;;;;;;4.93;4.03;;;8.30;99.90;;;;;;4939421;29;20024;-78
2023/11/10 10:13:47;;;;;;;10.63;4.47;;;8.40;99.90;;;;;;4938943;29;20034;-76
2023/11/10 10:16:12;;;;;;;7.22;3.90;;;8.40;99.90;;;;;;4939522;29;20024;-77
2023/11/10 10:18:42;;;;;;;5.70;3.67;;;8.40;99.90;;;;;;4939238;29;20030;-77
2023/11/10 10:21:08;;;;;;;7.30;4.28;;;8.30;99.90;;;;;;4939297;29;20035;-77
2023/11/10 10:23:35;;;;;;;5.65;3.70;;;8.30;99.90;;;;;;4939175;29;20062;-75
2023/11/10 10:26:04;;;;;;;5.28;3.83;;;8.40;99.90;;;;;;4939013;29;20023;-76
2023/11/10 10:28:30;;;;;;;6.03;4.00;;;8.30;99.90;;;;;;4938286;29;20035;-76
2023/11/10 10:30:56;;;;;;;5.90;4.00;;;8.30;99.90;;;;;;4938527;29;20075;-79
2023/11/10 10:33:22;;;;;;;7.68;3.97;;;8.40;99.90;;;;;;4940024;29;20451;-76
2023/11/10 10:35:48;;;;;;;5.18;3.78;;;8.40;99.90;;;;;;4939590;29;20024;-77
2023/11/10 10:38:17;;;;;;;6.25;3.88;;;8.40;99.90;;;;;;4940006;29;20392;-77
2023/11/10 10:40:43;;;;;;;7.40;5.40;;;8.40;99.90;;;;;;4938525;29;20028;-78
2023/11/10 10:43:09;;;;;;;8.00;4.40;;;8.40;99.90;;;;;;4939562;29;20020;-77
2023/11/10 10:45:37;;;;;;;8.07;5.10;;;8.50;99.90;;;;;;4938187;29;20040;-78
2023/11/10 10:48:04;;;;;;;12.77;6.57;;;8.40;99.90;;;;;;4939080;29;20488;-75
2023/11/10 10:50:33;;;;;;;13.52;8.55;;;8.40;99.90;;;;;;4938435;29;20027;-76
2023/11/10 10:53:00;;;;;;;19.35;12.73;;;8.50;99.90;;;;;;4938948;29;20504;-76
2023/11/10 10:55:27;;;;;;;11.15;7.63;;;8.40;99.90;;;;;;4938712;29;20111;-78
2023/11/10 10:57:56;;;;;;;13.00;9.88;;;8.50;99.90;;;;;;4938475;29;20024;-76
2023/11/10 11:00:23;;;;;;;11.93;8.77;;;8.60;99.90;;;;;;4938555;29;20474;-75
2023/11/10 11:03:09;;;;;;;13.50;7.53;;;8.60;99.90;;;;;;4938295;29;20189;-76
2023/11/10 11:05:43;;;;;;;13.45;8.65;;;8.60;99.90;;;;;;4938058;29;20027;-76
2023/11/10 11:08:35;;;;;;;14.48;10.38;;;8.80;99.90;;;;;;4923053;29;20035;-75
2023/11/10 11:11:37;;;;;;;6.50;5.22;;;8.90;99.90;;;;;;4930593;29;20106;-76
2023/11/10 11:14:10;;;;;;;8.07;5.03;;;8.80;99.90;;;;;;4941118;29;20039;-76
2023/11/10 11:16:54;;;;;;;9.15;6.63;;;8.90;99.90;;;;;;4924574;29;20110;-76
2023/11/10 11:19:24;;;;;;;12.07;7.15;;;8.90;99.90;;;;;;4939890;29;20051;-76
2023/11/10 11:21:51;;;;;;;16.48;8.65;;;9.00;99.90;;;;;;4941710;29;20071;-76
2023/11/10 11:24:21;;;;;;;10.35;6.25;;;9.00;99.90;;;;;;4939138;29;20451;-77
2023/11/10 11:26:56;;;;;;;8.75;5.65;;;9.00;99.90;;;;;;4939978;29;20059;-75
2023/11/10 11:29:21;;;;;;;7.15;3.92;;;9.00;99.90;;;;;;4938495;29;20032;-77
2023/11/10 11:31:47;;;;;;;7.28;3.95;;;9.00;99.90;;;;;;4941676;29;20032;-76
2023/11/10 11:34:16;;;;;;;9.48;6.90;;;9.00;99.90;;;;;;4941591;29;20035;-76
2023/11/10 11:36:47;;;;;;;10.23;5.72;;;9.00;99.90;;;;;;4942806;29;20035;-76
2023/11/10 11:39:17;;;;;;;17.30;10.50;;;9.00;99.90;;;;;;4942361;29;20027;-78
2023/11/10 11:41:53;;;;;;;14.95;10.60;;;9.10;99.90;;;;;;4940797;29;20034;-77
2023/11/10 11:44:36;;;;;;;6.10;4.30;;;9.10;99.90;;;;;;4940610;29;20059;-77
2023/11/10 11:47:06;;;;;;;4.63;3.75;;;9.10;99.90;;;;;;4941198;29;20086;-78
2023/11/10 11:49:32;;;;;;;7.03;3.30;;;9.10;99.90;;;;;;4941116;29;20031;-77
2023/11/10 11:51:59;;;;;;;7.90;3.35;;;9.10;99.90;;;;;;4942500;29;20024;-77
2023/11/10 11:54:28;;;;;;;8.43;5.20;;;9.20;99.90;;;;;;4940079;29;20035;-77
2023/11/10 11:56:58;;;;;;;5.60;3.95;;;9.30;99.90;;;;;;4939104;29;20032;-77
2023/11/10 11:59:24;;;;;;;4.53;4.13;;;9.30;99.90;;;;;;4937146;29;20023;-76
2023/11/10 12:01:50;;;;;;;6.25;4.90;;;9.30;99.90;;;;;;4942291;29;20020;-77
2023/11/10 12:04:16;;;;;;;5.07;3.80;;;9.30;99.90;;;;;;4939265;29;20090;-76
2023/11/10 12:06:42;;;;;;;4.43;3.42;;;9.90;99.90;;;;;;4939242;29;20492;-79
2023/11/10 12:09:08;;;;;;;4.75;3.42;;;9.40;99.90;;;;;;4937840;29;20024;-76
2023/11/10 12:11:36;;;;;;;9.25;3.47;;;9.30;99.90;;;;;;4940549;29;20036;-74
2023/11/10 12:14:06;;;;;;;2.67;2.42;;;9.30;99.90;;;;;;4939044;29;20024;-77
2023/11/10 12:16:35;;;;;;;3.90;3.05;;;9.30;99.90;;;;;;4941095;29;20504;-77
2023/11/10 12:19:04;;;;;;;4.82;3.50;;;9.30;99.90;;;;;;4939584;29;20032;-77
2023/11/10 12:21:34;;;;;;;7.45;3.55;;;9.30;99.90;;;;;;4939327;29;20051;-79
2023/11/10 12:24:04;;;;;;;6.93;4.07;;;9.40;99.90;;;;;;4946298;29;20031;-78
2023/11/10 12:26:40;;;;;;;4.53;3.97;;;9.40;99.90;;;;;;4951208;29;20028;-79
2023/11/10 12:29:15;;;;;;;7.93;6.13;;;9.50;99.90;;;;;;4951210;29;20020;-78
2023/11/10 12:31:43;;;;;;;4.30;3.85;;;9.40;99.90;;;;;;4950308;29;20031;-76
2023/11/10 12:34:08;;;;;;;8.48;5.75;;;9.40;99.90;;;;;;4947793;29;20035;-78
2023/11/10 12:36:35;;;;;;;19.38;11.60;;;9.50;99.90;;;;;;4944195;29;20448;-78
2023/11/10 12:39:06;;;;;;;6.22;5.03;;;9.50;99.90;;;;;;4944138;29;20079;-76
2023/11/10 12:41:32;;;;;;;8.20;6.47;;;9.50;99.90;;;;;;4942341;29;20491;-79
2023/11/10 12:43:58;;;;;;;5.03;3.83;;;9.60;99.90;;;;;;4941815;29;20031;-77
2023/11/10 12:46:24;;;;;;;15.60;11.02;;;9.80;99.90;;;;;;4941516;29;20027;-77
2023/11/10 12:48:56;;;;;;;11.45;7.57;;;9.80;99.90;;;;;;4933097;29;20036;-77
2023/11/10 12:51:23;;;;;;;5.85;4.18;;;9.60;99.90;;;;;;4931601;29;20032;-77
2023/11/10 12:54:06;;;;;;;4.63;3.58;;;9.60;99.90;;;;;;4931276;29;20075;-77